createdAt,value
2022-12-14T00:05:23.152Z,65.57859531772576
2022-12-14T00:15:26.745Z,62.45150501672241
2022-12-14T00:28:32.187Z,64.47491638795987
2022-12-14T00:34:54.475Z,64.39464882943143
2022-12-14T00:45:33.482Z,63.27759197324415
2022-12-14T00:51:56.200Z,65.0
2022-12-14T00:58:18.683Z,63.74916387959866
2022-12-14T01:04:40.906Z,63.65551839464883
2022-12-14T01:13:11.434Z,63.424749163879596
2022-12-14T01:32:16.614Z,63.54849498327759
2022-12-14T01:38:39.271Z,62.11371237458194
2022-12-14T01:45:04.536Z,61.16053511705686
2022-12-14T01:53:50.347Z,61.374581939799334
2022-12-14T02:02:46.726Z,61.40468227424749
2022-12-14T02:15:36.572Z,58.72240802675585
2022-12-14T02:21:56.035Z,59.953177257525084
2022-12-14T02:44:07.087Z,57.78260869565217
2022-12-14T02:59:22.377Z,61.30434782608695
2022-12-14T03:07:26.187Z,57.51839464882943
2022-12-14T03:13:47.269Z,57.93311036789298
2022-12-14T03:24:44.769Z,56.33779264214047
2022-12-14T03:31:06.006Z,56.08361204013378
2022-12-14T03:37:26.735Z,55.54849498327759
2022-12-14T03:43:49.891Z,56.93979933110368
2022-12-14T03:58:57.388Z,55.77591973244147
2022-12-14T04:06:42.731Z,62.759197324414714
2022-12-14T04:13:04.853Z,58.68561872909699
2022-12-14T04:19:26.909Z,56.725752508361204
2022-12-14T04:30:35.903Z,54.47826086956522
2022-12-14T04:41:07.851Z,54.2675585284281
2022-12-14T04:47:32.173Z,53.91638795986622
2022-12-14T04:58:19.373Z,55.60535117056856
2022-12-14T05:08:01.653Z,54.561872909699
2022-12-14T05:17:18.208Z,54.59866220735786
2022-12-14T05:23:38.795Z,52.702341137123746
2022-12-14T05:30:00.016Z,52.12709030100334
2022-12-14T05:39:15.172Z,53.719063545150505
2022-12-14T05:45:41.558Z,54.35117056856188
2022-12-14T05:52:03.270Z,53.22742474916388
2022-12-14T05:58:25.671Z,53.11705685618729
2022-12-14T06:09:24.975Z,53.264214046822744
2022-12-14T06:15:47.078Z,50.953177257525084
2022-12-14T06:25:54.759Z,50.364548494983275
2022-12-14T06:32:21.028Z,49.953177257525084
2022-12-14T06:38:44.874Z,52.16053511705686
2022-12-14T06:45:06.829Z,47.986622073578594
2022-12-14T06:51:28.481Z,49.64882943143812
2022-12-14T07:11:56.075Z,50.45150501672241
2022-12-14T07:18:19.320Z,51.65551839464883
2022-12-14T07:24:43.962Z,51.635451505016725
2022-12-14T07:31:08.303Z,51.68561872909699
2022-12-14T07:45:37.312Z,58.936454849498325
2022-12-14T07:51:59.454Z,54.836120401337794
2022-12-14T08:03:11.013Z,54.30769230769231
2022-12-14T08:12:56.576Z,56.60200668896321
2022-12-14T08:19:18.086Z,56.551839464882946
2022-12-14T08:25:41.285Z,55.94314381270903
2022-12-14T08:32:03.000Z,56.07357859531773
2022-12-14T08:38:25.964Z,57.46153846153846
2022-12-14T08:44:48.211Z,56.919732441471574
2022-12-14T08:57:01.033Z,55.33779264214047
2022-12-14T09:13:09.148Z,54.67892976588629
2022-12-14T09:20:49.026Z,54.66555183946488
2022-12-14T09:27:12.701Z,54.13377926421405
2022-12-14T09:37:47.957Z,51.98996655518395
2022-12-14T09:48:08.301Z,50.03678929765886
2022-12-14T09:54:30.878Z,49.48494983277592
2022-12-14T10:04:32.406Z,47.280936454849495
2022-12-14T10:10:55.117Z,45.324414715719065
2022-12-14T10:20:15.871Z,44.05351170568562
2022-12-14T10:26:37.836Z,43.74916387959866
2022-12-14T10:32:59.461Z,43.618729096989966
2022-12-14T10:40:41.393Z,42.27090301003344
2022-12-14T10:47:02.608Z,44.290969899665555
2022-12-14T10:53:24.037Z,43.541806020066886
2022-12-14T11:00:03.374Z,44.72909698996656
2022-12-14T11:06:51.577Z,45.04013377926422
2022-12-14T11:13:13.220Z,45.836120401337794
2022-12-14T11:19:34.804Z,45.95986622073578
2022-12-14T11:29:49.556Z,45.2943143812709
2022-12-14T11:36:11.755Z,45.05685618729097
2022-12-14T11:42:33.169Z,42.7324414715719
2022-12-14T11:55:26.198Z,44.979933110367895
2022-12-14T12:01:51.192Z,40.75585284280937
2022-12-14T12:08:12.684Z,41.08361204013378
2022-12-14T12:14:34.513Z,42.88294314381271
2022-12-14T12:24:21.944Z,43.64882943143812
2022-12-14T12:30:42.967Z,43.852842809364546
2022-12-14T12:37:26.407Z,42.5819397993311
2022-12-14T12:47:06.812Z,40.69565217391305
2022-12-14T12:55:48.988Z,41.54849498327759
2022-12-14T13:03:33.152Z,42.79933110367893
2022-12-14T13:09:54.950Z,42.06020066889632
2022-12-14T13:16:18.618Z,40.69899665551839
2022-12-14T13:24:39.406Z,41.63879598662207
2022-12-14T13:44:37.458Z,40.82608695652174
2022-12-14T13:51:05.853Z,41.625418060200666
2022-12-14T14:00:24.077Z,41.424749163879596
2022-12-14T14:06:45.485Z,41.01003344481605
2022-12-14T14:17:16.164Z,42.096989966555185
2022-12-14T14:30:31.498Z,41.97324414715719
2022-12-14T14:36:53.466Z,42.20066889632107
2022-12-14T14:43:16.722Z,42.96655518394649
2022-12-14T14:49:38.629Z,44.84615384615385
2022-12-14T14:55:58.519Z,51.08361204013378
2022-12-14T15:03:46.679Z,103.8628762541806
2022-12-14T15:10:08.784Z,107.47491638795987
2022-12-14T15:16:31.728Z,85.27424749163879
2022-12-14T15:22:53.395Z,72.20066889632108
2022-12-14T15:29:17.582Z,64.31103678929766
2022-12-14T15:36:27.718Z,64.27759197324414
2022-12-14T15:46:17.683Z,60.82943143812709
2022-12-14T15:56:11.970Z,51.69899665551839
2022-12-14T16:02:33.447Z,50.48494983277592
2022-12-14T16:08:55.359Z,49.72909698996656
2022-12-14T16:15:17.522Z,50.65551839464883
2022-12-14T16:21:55.162Z,49.25752508361204
2022-12-14T16:28:21.639Z,49.62207357859532
2022-12-14T16:36:02.259Z,54.77591973244147
2022-12-14T16:48:06.364Z,53.331103678929765
2022-12-14T16:56:49.413Z,55.80936454849498
2022-12-14T17:03:09.555Z,57.10702341137124
2022-12-14T17:20:42.285Z,62.28428093645485
2022-12-14T17:27:01.989Z,71.8695652173913
2022-12-14T17:33:24.009Z,64.41806020066889
2022-12-14T17:42:36.452Z,61.013377926421406
2022-12-14T17:49:01.496Z,58.50167224080268
2022-12-14T17:55:26.840Z,61.57859531772575
2022-12-14T18:02:55.937Z,63.21070234113712
2022-12-14T18:09:15.698Z,66.12709030100335
2022-12-14T18:21:51.884Z,70.51839464882943
2022-12-14T18:28:14.848Z,72.22742474916387
2022-12-14T18:34:34.169Z,73.44816053511705
2022-12-14T18:44:35.955Z,72.09030100334448
2022-12-14T18:50:56.790Z,70.32775919732441
2022-12-14T19:08:34.575Z,77.5685618729097
2022-12-14T19:14:56.654Z,76.76254180602007
2022-12-14T19:21:20.842Z,74.06688963210702
2022-12-14T19:28:25.825Z,75.45150501672241
2022-12-14T19:38:59.476Z,76.5752508361204
2022-12-14T19:45:22.519Z,82.80602006688963
2022-12-14T19:58:24.688Z,82.24414715719064
2022-12-14T20:07:20.996Z,80.52508361204013
2022-12-14T20:18:16.729Z,83.17725752508362
2022-12-14T20:24:39.826Z,86.26086956521739
2022-12-14T20:35:16.517Z,84.94314381270902
2022-12-14T20:41:39.375Z,81.2809364548495
2022-12-14T20:48:22.688Z,74.78260869565217
2022-12-14T20:54:47.694Z,68.70234113712375
2022-12-14T21:05:39.936Z,66.9933110367893
2022-12-14T21:14:22.623Z,63.87290969899666
2022-12-14T21:24:31.022Z,68.51839464882943
2022-12-14T21:31:33.461Z,66.54180602006689
2022-12-14T21:37:55.451Z,64.07357859531773
2022-12-14T21:44:18.669Z,63.936454849498325
2022-12-14T22:03:17.658Z,60.876254180602004
2022-12-14T22:09:40.598Z,60.98327759197324
2022-12-14T22:16:01.852Z,60.274247491638796
2022-12-14T22:22:23.233Z,57.591973244147155
2022-12-14T22:28:44.550Z,57.58862876254181
2022-12-14T22:35:06.611Z,58.37792642140468
2022-12-14T22:47:13.963Z,54.903010033444815
2022-12-14T22:57:59.557Z,54.02341137123746
2022-12-14T23:04:23.570Z,53.23745819397993
2022-12-14T23:10:44.352Z,51.67892976588629
2022-12-14T23:17:12.753Z,53.819397993311036
2022-12-14T23:23:35.964Z,53.10033444816054
2022-12-14T23:32:23.413Z,51.61204013377927
2022-12-14T23:43:38.825Z,52.635451505016725
